createdAt,value
2019-03-06T00:00:11.188Z,42.55
2019-03-06T00:02:21.087Z,49.83
2019-03-06T00:04:26.325Z,51.75
2019-03-06T00:06:31.620Z,42.83
2019-03-06T00:08:39.079Z,46.85
2019-03-06T00:10:44.383Z,51.68
2019-03-06T00:12:49.588Z,42.93
2019-03-06T00:14:56.419Z,59.50
2019-03-06T00:17:01.651Z,54.85
2019-03-06T00:19:06.928Z,57.17
2019-03-06T00:21:18.131Z,45.98
2019-03-06T00:23:28.383Z,43.00
2019-03-06T00:25:37.499Z,32.17
2019-03-06T00:27:45.299Z,33.38
2019-03-06T00:29:50.536Z,37.42
2019-03-06T00:32:17.554Z,30.32
2019-03-06T00:34:41.068Z,33.98
2019-03-06T00:36:50.120Z,34.25
2019-03-06T00:38:57.005Z,38.10
2019-03-06T00:51:00.114Z,32.55
2019-03-06T00:52:56.472Z,33.80
2019-03-06T00:57:15.323Z,34.45
2019-03-06T00:59:20.540Z,43.23
2019-03-06T01:01:25.816Z,37.70
2019-03-06T01:03:31.031Z,36.63
2019-03-06T01:05:36.248Z,35.52
2019-03-06T01:07:41.460Z,35.05
2019-03-06T01:09:47.172Z,32.20
2019-03-06T01:11:53.968Z,40.78
2019-03-06T01:13:59.173Z,41.63
2019-03-06T01:16:04.415Z,42.67
2019-03-06T01:18:09.725Z,36.70
2019-03-06T01:20:15.224Z,39.78
2019-03-06T01:22:20.436Z,34.13
2019-03-06T01:24:25.729Z,42.40
2019-03-06T01:26:30.932Z,38.35
2019-03-06T01:28:36.155Z,35.43
2019-03-06T01:30:41.360Z,35.75
2019-03-06T01:32:48.221Z,38.85
2019-03-06T01:34:55.141Z,35.33
2019-03-06T01:37:04.666Z,40.15
2019-03-06T01:39:20.239Z,38.67
2019-03-06T01:41:27.564Z,37.48
2019-03-06T01:43:40.620Z,44.40
2019-03-06T01:45:45.999Z,49.88
2019-03-06T01:47:51.306Z,49.63
2019-03-06T01:49:56.571Z,41.55
2019-03-06T01:52:01.780Z,47.93
2019-03-06T01:54:08.732Z,42.00
2019-03-06T01:56:13.932Z,49.40
2019-03-06T01:58:19.138Z,56.70
2019-03-06T02:00:24.708Z,43.83
2019-03-06T02:02:30.275Z,48.15
2019-03-06T02:04:35.485Z,51.55
2019-03-06T02:06:40.695Z,53.75
2019-03-06T02:08:45.984Z,46.95
2019-03-06T02:10:51.264Z,48.98
2019-03-06T02:12:56.541Z,57.05
2019-03-06T02:15:01.820Z,40.45
2019-03-06T02:17:08.190Z,54.30
2019-03-06T02:19:13.404Z,48.70
2019-03-06T02:21:18.616Z,69.75
2019-03-06T02:23:24.787Z,59.60
2019-03-06T02:25:30.376Z,43.92
2019-03-06T02:27:35.585Z,45.52
2019-03-06T02:29:40.859Z,69.82
2019-03-06T02:31:46.148Z,47.15
2019-03-06T02:33:51.358Z,63.33
2019-03-06T02:35:56.570Z,65.47
2019-03-06T02:38:01.784Z,86.35
2019-03-06T02:40:09.404Z,107.27
2019-03-06T02:42:14.613Z,81.45
2019-03-06T02:44:20.104Z,74.85
2019-03-06T02:46:25.296Z,64.05
2019-03-06T02:48:30.537Z,77.22
2019-03-06T02:50:35.813Z,77.80
2019-03-06T02:52:41.042Z,83.03
2019-03-06T02:54:46.712Z,59.40
2019-03-06T02:56:51.921Z,66.40
2019-03-06T02:59:01.443Z,80.42
2019-03-06T03:01:08.369Z,74.67
2019-03-06T03:03:27.164Z,78.47
2019-03-06T03:05:36.975Z,80.55
2019-03-06T03:07:42.275Z,73.42
2019-03-06T03:09:47.477Z,67.90
2019-03-06T03:11:54.825Z,66.67
2019-03-06T03:14:01.133Z,62.03
2019-03-06T03:16:06.597Z,41.88
2019-03-06T03:18:11.885Z,55.83
2019-03-06T03:20:17.171Z,64.85
2019-03-06T03:22:22.440Z,47.13
2019-03-06T03:24:27.648Z,39.30
2019-03-06T03:26:32.884Z,57.78
2019-03-06T03:28:38.097Z,41.68
2019-03-06T03:30:43.601Z,55.40
2019-03-06T03:32:49.005Z,53.48
2019-03-06T03:34:54.254Z,49.85
2019-03-06T03:36:59.480Z,44.77
2019-03-06T03:39:06.233Z,52.20
2019-03-06T03:41:12.705Z,38.75
2019-03-06T03:43:17.912Z,47.03
2019-03-06T03:45:23.153Z,49.00
2019-03-06T03:47:28.357Z,51.50
2019-03-06T03:49:33.737Z,48.52
2019-03-06T03:51:38.946Z,45.98
2019-03-06T03:53:44.144Z,45.20
2019-03-06T03:55:49.424Z,44.98
2019-03-06T03:57:56.379Z,40.75
2019-03-06T04:00:01.592Z,46.13
2019-03-06T04:02:07.152Z,35.45
2019-03-06T04:04:12.404Z,37.25
2019-03-06T04:06:18.905Z,43.15
2019-03-06T04:08:24.139Z,38.05
2019-03-06T04:10:30.503Z,39.92
2019-03-06T04:12:35.778Z,37.38
2019-03-06T04:14:41.150Z,37.93
2019-03-06T04:16:46.380Z,38.28
2019-03-06T04:18:51.584Z,40.20
2019-03-06T04:20:56.793Z,43.25
2019-03-06T04:23:03.060Z,40.58
2019-03-06T04:25:09.509Z,44.38
2019-03-06T04:27:14.702Z,41.37
2019-03-06T04:29:20.012Z,86.85
2019-03-06T04:31:25.286Z,47.10
2019-03-06T04:33:30.565Z,38.53
2019-03-06T04:35:35.780Z,42.45
2019-03-06T04:37:41.043Z,41.90
2019-03-06T04:39:46.252Z,36.60
2019-03-06T04:41:51.464Z,40.92
2019-03-06T04:43:56.667Z,42.35
2019-03-06T04:46:01.880Z,45.20
2019-03-06T04:48:07.267Z,49.80
2019-03-06T04:50:14.371Z,54.20
2019-03-06T04:52:20.953Z,59.77
2019-03-06T04:54:27.142Z,68.10
2019-03-06T04:56:32.408Z,79.85
2019-03-06T04:58:37.615Z,75.50
2019-03-06T05:00:42.828Z,83.62
2019-03-06T05:02:48.039Z,87.25
2019-03-06T05:04:53.251Z,92.90
2019-03-06T05:06:58.659Z,101.15
2019-03-06T05:09:05.286Z,113.83
2019-03-06T05:11:12.176Z,124.70
2019-03-06T05:13:17.396Z,117.45
2019-03-06T05:15:23.179Z,116.15
2019-03-06T05:17:38.979Z,110.45
2019-03-06T05:19:44.200Z,107.12
2019-03-06T05:21:51.161Z,112.97
2019-03-06T05:23:56.840Z,189.25
2019-03-06T05:26:02.068Z,229.53
2019-03-06T05:28:07.287Z,215.22
2019-03-06T05:30:13.913Z,200.00
2019-03-06T05:32:33.280Z,140.20
2019-03-06T05:34:38.492Z,154.93
2019-03-06T05:36:46.969Z,140.73
2019-03-06T05:39:04.462Z,132.32
2019-03-06T05:41:11.263Z,128.70
2019-03-06T05:43:16.475Z,122.87
2019-03-06T05:45:22.011Z,121.50
2019-03-06T05:47:27.291Z,109.57
2019-03-06T05:49:34.172Z,110.78
2019-03-06T05:51:39.462Z,99.62
2019-03-06T05:53:44.664Z,95.22
2019-03-06T05:55:49.868Z,98.27
2019-03-06T05:57:55.079Z,85.40
2019-03-06T06:00:00.723Z,88.25
2019-03-06T06:02:06.003Z,83.52
2019-03-06T06:04:11.419Z,94.85
2019-03-06T06:06:16.628Z,86.50
2019-03-06T06:08:21.831Z,82.67
2019-03-06T06:10:27.067Z,96.90
2019-03-06T06:12:32.278Z,83.62
2019-03-06T06:14:38.691Z,78.28
2019-03-06T06:16:43.968Z,85.40
2019-03-06T06:18:49.167Z,78.90
2019-03-06T06:21:02.048Z,96.28
2019-03-06T06:23:08.900Z,111.72
2019-03-06T06:25:14.277Z,100.42
2019-03-06T06:27:19.495Z,93.07
2019-03-06T06:29:24.709Z,130.37
2019-03-06T06:31:29.916Z,134.70
2019-03-06T06:33:35.140Z,120.33
2019-03-06T06:35:40.445Z,124.80
2019-03-06T06:37:45.672Z,122.62
2019-03-06T06:39:51.044Z,133.00
2019-03-06T06:41:56.263Z,153.95
2019-03-06T06:44:01.773Z,128.80
2019-03-06T06:46:07.652Z,121.45
2019-03-06T06:48:17.569Z,119.22
2019-03-06T06:50:23.124Z,100.95
2019-03-06T06:52:37.184Z,75.90
2019-03-06T06:55:05.420Z,90.17
2019-03-06T06:57:22.428Z,103.40
2019-03-06T06:59:32.288Z,103.45
2019-03-06T07:02:06.687Z,143.07
2019-03-06T07:04:39.795Z,114.70
2019-03-06T07:06:49.396Z,158.68
2019-03-06T07:09:11.168Z,134.05
2019-03-06T07:11:27.199Z,123.42
2019-03-06T07:13:36.827Z,118.35
2019-03-06T07:15:49.837Z,118.42
2019-03-06T07:18:11.942Z,96.50
2019-03-06T07:20:19.056Z,94.35
2019-03-06T07:22:34.928Z,87.90
2019-03-06T07:24:44.820Z,92.42
2019-03-06T07:27:00.580Z,76.50
2019-03-06T07:29:07.506Z,73.78
2019-03-06T07:31:30.840Z,73.37
2019-03-06T07:33:38.030Z,79.87
2019-03-06T07:35:50.669Z,68.05
2019-03-06T07:37:57.508Z,68.92
2019-03-06T07:40:04.183Z,69.82
2019-03-06T07:42:14.111Z,66.05
2019-03-06T07:44:29.614Z,75.25
2019-03-06T07:46:32.482Z,65.20
2019-03-06T07:48:39.412Z,68.78
2019-03-06T07:50:49.266Z,67.95
2019-03-06T07:53:32.191Z,58.05
2019-03-06T07:55:39.208Z,60.98
2019-03-06T07:58:20.908Z,68.50
2019-03-06T08:00:26.392Z,60.95
2019-03-06T08:02:57.539Z,59.85
2019-03-06T08:05:02.819Z,54.10
2019-03-06T08:07:15.245Z,60.92
2019-03-06T08:09:20.811Z,62.35
2019-03-06T08:11:27.671Z,48.75
2019-03-06T08:13:35.077Z,52.85
2019-03-06T08:15:41.992Z,47.90
2019-03-06T08:17:51.496Z,43.80
2019-03-06T08:20:13.803Z,45.52
2019-03-06T08:22:35.752Z,43.33
2019-03-06T08:24:58.899Z,47.48
2019-03-06T08:27:04.115Z,44.67
2019-03-06T08:29:09.404Z,43.10
2019-03-06T08:31:16.262Z,40.48
2019-03-06T08:33:21.508Z,42.78
2019-03-06T08:35:26.790Z,43.83
2019-03-06T08:37:32.212Z,41.23
2019-03-06T08:39:37.436Z,43.00
2019-03-06T08:41:43.012Z,39.80
2019-03-06T08:43:48.293Z,44.50
2019-03-06T08:46:02.357Z,42.65
2019-03-06T08:48:09.208Z,42.38
2019-03-06T08:50:25.071Z,42.03
2019-03-06T08:52:34.633Z,43.48
2019-03-06T08:54:43.931Z,41.98
2019-03-06T08:56:56.848Z,44.25
2019-03-06T08:59:03.741Z,37.35
2019-03-06T09:01:18.963Z,42.78
2019-03-06T09:03:34.982Z,41.15
2019-03-06T09:05:57.357Z,38.53
2019-03-06T09:08:13.240Z,37.70
2019-03-06T09:10:38.165Z,37.80
2019-03-06T09:12:45.048Z,31.87
2019-03-06T09:15:08.260Z,36.93
2019-03-06T09:17:31.444Z,35.38
2019-03-06T09:22:11.475Z,28.55
2019-03-06T09:24:34.020Z,30.85
2019-03-06T09:26:46.679Z,36.70
2019-03-06T09:29:08.650Z,34.98
2019-03-06T09:31:15.510Z,34.60
2019-03-06T09:33:28.542Z,27.10
2019-03-06T09:35:51.397Z,29.20
2019-03-06T09:37:59.428Z,26.73
2019-03-06T09:40:27.743Z,22.75
2019-03-06T09:42:34.673Z,25.95
2019-03-06T09:44:41.528Z,24.27
2019-03-06T09:46:48.392Z,35.13
2019-03-06T09:48:55.244Z,32.60
2019-03-06T09:51:02.105Z,26.33
2019-03-06T09:53:25.536Z,28.73
2019-03-06T09:55:35.585Z,28.17
2019-03-06T09:57:48.315Z,32.10
2019-03-06T10:00:12.631Z,27.87
2019-03-06T10:02:35.875Z,29.12
2019-03-06T10:04:44.475Z,31.73
2019-03-06T10:06:51.378Z,25.57
2019-03-06T10:09:09.812Z,24.37
2019-03-06T10:11:20.071Z,24.90
2019-03-06T10:13:31.982Z,20.25
2019-03-06T10:15:39.800Z,20.23
2019-03-06T10:17:46.665Z,17.90
2019-03-06T10:19:56.448Z,19.17
2019-03-06T10:22:01.684Z,19.62
2019-03-06T10:24:06.900Z,18.98
2019-03-06T10:26:12.127Z,21.93
2019-03-06T10:28:27.334Z,21.12
2019-03-06T10:30:24.512Z,21.75
2019-03-06T10:32:29.956Z,19.95
2019-03-06T10:34:35.180Z,24.35
2019-03-06T10:36:40.765Z,16.95
2019-03-06T10:38:45.980Z,21.25
2019-03-06T10:40:51.404Z,18.50
2019-03-06T10:42:56.617Z,17.00
2019-03-06T10:45:01.837Z,20.17
2019-03-06T10:47:07.330Z,21.90
2019-03-06T10:49:12.978Z,18.92
2019-03-06T10:51:18.455Z,15.72
2019-03-06T10:53:23.681Z,13.20
2019-03-06T10:55:28.883Z,11.65
2019-03-06T10:57:34.300Z,18.65
2019-03-06T10:59:39.617Z,18.87
2019-03-06T11:01:44.820Z,16.82
2019-03-06T11:03:51.940Z,15.15
2019-03-06T11:05:57.183Z,21.33
2019-03-06T11:08:02.388Z,12.93
2019-03-06T11:10:12.969Z,15.05
2019-03-06T11:12:18.756Z,18.95
2019-03-06T11:14:24.036Z,13.35
2019-03-06T11:16:30.130Z,12.50
2019-03-06T11:18:37.159Z,16.27
2019-03-06T11:20:42.391Z,12.68
2019-03-06T11:22:47.724Z,14.93
2019-03-06T11:24:52.981Z,14.18
2019-03-06T11:26:58.180Z,15.65
2019-03-06T11:29:04.973Z,16.05
2019-03-06T11:31:10.255Z,12.93
2019-03-06T11:33:15.731Z,14.03
2019-03-06T11:35:23.046Z,12.30
2019-03-06T11:37:28.304Z,12.00
2019-03-06T11:39:33.584Z,15.35
2019-03-06T11:41:38.868Z,14.18
2019-03-06T11:43:44.099Z,17.17
2019-03-06T11:45:49.790Z,14.40
2019-03-06T11:47:55.059Z,9.95
2019-03-06T11:50:00.673Z,13.85
2019-03-06T11:52:06.554Z,11.90
2019-03-06T11:54:12.864Z,9.98
2019-03-06T11:56:18.189Z,13.35
2019-03-06T11:58:23.596Z,12.18
2019-03-06T12:00:39.582Z,12.53
2019-03-06T12:02:45.232Z,13.13
2019-03-06T12:04:51.108Z,12.05
2019-03-06T12:06:56.392Z,14.87
2019-03-06T12:09:01.663Z,12.35
2019-03-06T12:11:08.561Z,40.15
2019-03-06T12:13:17.245Z,17.73
2019-03-06T12:15:22.539Z,18.95
2019-03-06T12:17:27.752Z,17.35
2019-03-06T12:19:32.960Z,15.70
2019-03-06T12:21:38.201Z,16.17
2019-03-06T12:23:43.684Z,18.35
2019-03-06T12:25:50.331Z,9.10
2019-03-06T12:27:55.543Z,13.62
2019-03-06T12:30:00.836Z,18.00
2019-03-06T12:32:06.561Z,23.15
2019-03-06T12:34:11.799Z,20.12
2019-03-06T12:36:17.015Z,15.75
2019-03-06T12:38:22.300Z,17.02
2019-03-06T12:40:28.351Z,18.52
2019-03-06T12:42:33.581Z,16.97
2019-03-06T12:44:39.876Z,16.82
2019-03-06T12:46:45.184Z,13.40
2019-03-06T12:48:54.236Z,14.93
2019-03-06T12:50:59.622Z,15.83
2019-03-06T12:53:04.862Z,14.05
2019-03-06T12:55:11.212Z,11.60
2019-03-06T12:57:16.433Z,12.03
2019-03-06T12:59:21.664Z,14.47
2019-03-06T13:01:26.868Z,13.83
2019-03-06T13:03:32.076Z,16.02
2019-03-06T13:05:37.287Z,14.50
2019-03-06T13:07:42.576Z,13.55
2019-03-06T13:09:47.944Z,18.90
2019-03-06T13:11:53.324Z,17.27
2019-03-06T13:13:58.934Z,16.45
2019-03-06T13:16:04.144Z,17.82
2019-03-06T13:18:11.015Z,25.57
2019-03-06T13:20:16.259Z,18.50
2019-03-06T13:22:21.639Z,18.77
2019-03-06T13:24:28.123Z,19.57
2019-03-06T13:26:33.334Z,17.35
2019-03-06T13:28:38.612Z,16.93
2019-03-06T13:30:43.824Z,13.60
2019-03-06T13:32:53.337Z,14.75
2019-03-06T13:34:59.728Z,20.32
2019-03-06T13:37:04.968Z,15.95
2019-03-06T13:39:10.576Z,12.73
2019-03-06T13:41:17.455Z,14.53
2019-03-06T13:43:22.672Z,15.15
2019-03-06T13:45:27.890Z,13.03
2019-03-06T13:47:33.259Z,12.35
2019-03-06T13:49:38.481Z,11.40
2019-03-06T13:51:43.688Z,13.43
2019-03-06T13:53:48.900Z,13.43
2019-03-06T13:55:54.116Z,13.48
2019-03-06T13:57:59.319Z,11.88
2019-03-06T14:00:10.439Z,11.15
2019-03-06T14:02:15.798Z,12.03
2019-03-06T14:04:21.072Z,8.33
2019-03-06T14:06:26.360Z,9.95
2019-03-06T14:08:31.856Z,10.38
2019-03-06T14:10:37.060Z,8.55
2019-03-06T14:12:42.273Z,11.22
2019-03-06T14:14:47.613Z,12.43
2019-03-06T14:16:52.895Z,10.53
2019-03-06T14:18:58.119Z,8.00
2019-03-06T14:21:03.401Z,8.70
2019-03-06T14:23:08.671Z,12.40
2019-03-06T14:25:13.944Z,14.70
2019-03-06T14:27:19.320Z,7.92
2019-03-06T14:29:25.652Z,6.92
2019-03-06T14:31:30.997Z,11.12
2019-03-06T14:33:36.221Z,9.85
2019-03-06T14:35:41.488Z,8.35
2019-03-06T14:37:46.761Z,9.80
2019-03-06T14:39:52.040Z,9.30
2019-03-06T14:41:57.577Z,10.58
2019-03-06T14:44:02.736Z,17.23
2019-03-06T14:46:16.110Z,10.28
2019-03-06T14:48:16.128Z,9.83
2019-03-06T14:50:21.506Z,9.85
2019-03-06T14:52:27.792Z,16.42
2019-03-06T14:54:32.996Z,18.12
2019-03-06T14:56:38.204Z,14.98
2019-03-06T14:58:43.444Z,18.17
2019-03-06T15:00:48.662Z,22.85
2019-03-06T15:02:54.132Z,9.88
2019-03-06T15:04:59.515Z,9.63
2019-03-06T15:07:06.220Z,13.32
2019-03-06T15:09:16.529Z,8.45
2019-03-06T15:11:21.746Z,12.88
2019-03-06T15:13:26.960Z,12.35
2019-03-06T15:15:32.270Z,19.92
2019-03-06T15:17:37.488Z,12.70
2019-03-06T15:19:42.765Z,11.63
2019-03-06T15:21:47.971Z,13.55
2019-03-06T15:23:53.560Z,12.33
2019-03-06T15:25:58.945Z,12.93
2019-03-06T15:28:04.688Z,14.15
2019-03-06T15:30:12.248Z,15.20
2019-03-06T15:32:17.452Z,15.88
2019-03-06T15:34:22.669Z,24.18
2019-03-06T15:36:27.976Z,26.95
2019-03-06T15:38:33.185Z,23.12
2019-03-06T15:40:40.461Z,24.23
2019-03-06T15:42:45.893Z,19.35
2019-03-06T15:44:51.376Z,19.05
2019-03-06T15:46:56.653Z,34.88
2019-03-06T15:49:02.688Z,30.20
2019-03-06T15:51:07.911Z,18.70
2019-03-06T15:53:23.849Z,32.25
2019-03-06T15:55:25.100Z,23.15
2019-03-06T15:57:30.320Z,21.93
2019-03-06T15:59:35.608Z,22.75
2019-03-06T16:01:40.904Z,22.15
2019-03-06T16:03:47.686Z,19.67
2019-03-06T16:05:54.165Z,28.60
2019-03-06T16:07:59.386Z,22.50
2019-03-06T16:10:08.008Z,23.90
2019-03-06T16:12:14.556Z,23.87
2019-03-06T16:14:19.776Z,28.07
2019-03-06T16:16:24.988Z,36.30
2019-03-06T16:18:30.200Z,44.18
2019-03-06T16:20:35.493Z,39.55
2019-03-06T16:22:40.707Z,42.62
2019-03-06T16:24:45.917Z,34.75
2019-03-06T16:26:51.131Z,40.55
2019-03-06T16:28:56.412Z,38.73
2019-03-06T16:31:01.697Z,40.30
2019-03-06T16:33:06.914Z,43.45
2019-03-06T16:35:12.116Z,47.13
2019-03-06T16:37:17.328Z,64.30
2019-03-06T16:39:22.581Z,83.97
2019-03-06T16:41:27.756Z,97.27
2019-03-06T16:43:33.155Z,95.83
2019-03-06T16:45:39.513Z,90.90
2019-03-06T16:47:44.880Z,77.90
2019-03-06T16:49:50.090Z,78.10
2019-03-06T16:51:55.363Z,69.55
2019-03-06T16:54:00.639Z,63.80
2019-03-06T16:56:06.060Z,74.53
2019-03-06T16:58:11.272Z,62.55
2019-03-06T17:00:25.004Z,68.10
2019-03-06T17:02:30.276Z,72.95
2019-03-06T17:04:35.491Z,82.35
2019-03-06T17:06:40.713Z,101.18
2019-03-06T17:08:46.191Z,122.65
2019-03-06T17:10:51.416Z,128.55
2019-03-06T17:12:56.636Z,134.60
2019-03-06T17:15:01.909Z,125.27
2019-03-06T17:17:08.630Z,133.27
2019-03-06T17:19:13.844Z,128.23
2019-03-06T17:21:19.152Z,131.90
2019-03-06T17:23:24.470Z,130.55
2019-03-06T17:25:30.058Z,131.97
2019-03-06T17:27:35.268Z,143.97
2019-03-06T17:29:40.961Z,167.03
2019-03-06T17:31:47.804Z,191.50
2019-03-06T17:33:55.558Z,344.18
2019-03-06T17:36:00.977Z,158.70
2019-03-06T17:38:08.503Z,184.75
2019-03-06T17:40:14.080Z,198.95
2019-03-06T17:42:19.369Z,185.50
2019-03-06T17:47:23.029Z,199.55
2019-03-06T17:49:28.236Z,189.28
2019-03-06T17:51:33.451Z,182.95
2019-03-06T17:53:38.680Z,190.60
2019-03-06T17:55:43.892Z,199.45
2019-03-06T17:57:49.120Z,216.82
2019-03-06T17:59:55.004Z,198.25
2019-03-06T18:02:02.584Z,197.47
2019-03-06T18:04:15.924Z,180.32
2019-03-06T18:06:21.469Z,180.52
2019-03-06T18:08:26.684Z,158.72
2019-03-06T18:10:32.096Z,189.25
2019-03-06T18:12:37.335Z,185.65
2019-03-06T18:14:42.545Z,211.95
2019-03-06T18:16:47.760Z,201.60
2019-03-06T18:18:53.053Z,258.17
2019-03-06T18:20:58.277Z,256.07
2019-03-06T18:23:03.570Z,262.20
2019-03-06T18:25:11.631Z,286.23
2019-03-06T18:27:25.913Z,276.23
2019-03-06T18:29:24.340Z,247.33
2019-03-06T18:31:29.591Z,272.88
2019-03-06T18:33:34.809Z,263.00
2019-03-06T18:35:40.036Z,209.77
2019-03-06T18:37:45.364Z,189.25
2019-03-06T18:39:50.743Z,230.83
2019-03-06T18:41:55.951Z,218.57
2019-03-06T18:44:02.378Z,241.73
2019-03-06T18:46:07.860Z,208.90
2019-03-06T18:48:13.082Z,230.90
2019-03-06T18:50:19.239Z,177.78
2019-03-06T18:52:24.444Z,176.70
2019-03-06T18:54:29.652Z,161.65
2019-03-06T18:56:34.881Z,187.03
2019-03-06T18:58:40.092Z,195.10
2019-03-06T19:00:45.309Z,205.15
2019-03-06T19:02:50.524Z,172.93
2019-03-06T19:04:56.012Z,151.20
2019-03-06T19:07:01.233Z,165.10
2019-03-06T19:09:07.085Z,154.87
2019-03-06T19:11:16.907Z,166.80
2019-03-06T19:13:20.956Z,178.25
2019-03-06T19:15:29.229Z,178.87
2019-03-06T19:17:34.445Z,175.15
2019-03-06T19:19:39.728Z,158.55
2019-03-06T19:21:44.976Z,143.90
2019-03-06T19:23:50.189Z,130.97
2019-03-06T19:25:55.475Z,120.02
2019-03-06T19:28:00.891Z,112.17
2019-03-06T19:30:12.214Z,106.58
2019-03-06T19:32:18.083Z,97.97
2019-03-06T19:34:23.296Z,99.25
2019-03-06T19:36:28.505Z,108.67
2019-03-06T19:38:33.720Z,96.72
2019-03-06T19:40:38.956Z,97.85
2019-03-06T19:42:44.160Z,99.92
2019-03-06T19:44:49.665Z,94.60
2019-03-06T19:46:55.179Z,84.20
2019-03-06T19:49:00.453Z,93.33
2019-03-06T19:51:06.428Z,86.75
2019-03-06T19:53:11.676Z,78.07
2019-03-06T19:55:17.823Z,73.95
2019-03-06T19:57:23.033Z,72.75
2019-03-06T19:59:28.250Z,79.42
2019-03-06T20:01:33.457Z,84.95
2019-03-06T20:03:38.660Z,86.45
2019-03-06T20:05:43.884Z,91.65
2019-03-06T20:07:49.095Z,89.75
2019-03-06T20:09:54.495Z,97.02
2019-03-06T20:12:00.182Z,96.40
2019-03-06T20:14:05.401Z,94.55
2019-03-06T20:16:10.599Z,85.10
2019-03-06T20:18:15.817Z,91.00
2019-03-06T20:20:21.132Z,99.83
2019-03-06T20:22:26.407Z,101.82
2019-03-06T20:24:31.627Z,114.17
2019-03-06T20:26:37.974Z,126.80
2019-03-06T20:28:43.275Z,121.97
2019-03-06T20:30:48.504Z,101.45
2019-03-06T20:32:53.771Z,92.90
2019-03-06T20:34:58.980Z,75.95
2019-03-06T20:37:04.533Z,77.35
2019-03-06T20:39:09.768Z,72.15
2019-03-06T20:41:16.574Z,63.68
2019-03-06T20:43:23.053Z,57.60
2019-03-06T20:45:29.344Z,67.08
2019-03-06T20:47:34.548Z,59.98
2019-03-06T20:49:39.760Z,55.28
2019-03-06T20:51:44.993Z,59.75
2019-03-06T20:53:50.193Z,66.85
2019-03-06T20:55:55.400Z,63.35
2019-03-06T20:58:00.611Z,62.30
2019-03-06T21:00:14.547Z,53.45
2019-03-06T21:02:19.996Z,48.25
2019-03-06T21:04:25.225Z,45.15
2019-03-06T21:06:33.499Z,45.75
2019-03-06T21:08:37.267Z,41.10
2019-03-06T21:10:42.548Z,43.63
2019-03-06T21:12:47.747Z,48.02
2019-03-06T21:14:52.949Z,48.28
2019-03-06T21:16:59.305Z,52.00
2019-03-06T21:19:04.509Z,55.35
2019-03-06T21:21:09.721Z,54.23
2019-03-06T21:23:15.005Z,53.55
2019-03-06T21:25:21.143Z,53.68
2019-03-06T21:27:27.422Z,57.45
2019-03-06T21:29:32.640Z,57.40
2019-03-06T21:31:37.856Z,55.88
2019-03-06T21:33:43.064Z,64.03
2019-03-06T21:35:48.273Z,94.62
2019-03-06T21:37:53.478Z,82.97
2019-03-06T21:39:58.680Z,69.10
2019-03-06T21:42:03.924Z,67.97
2019-03-06T21:44:09.127Z,62.05
2019-03-06T21:46:14.327Z,62.48
2019-03-06T21:48:19.608Z,66.45
2019-03-06T21:50:24.829Z,59.08
2019-03-06T21:52:30.191Z,69.58
2019-03-06T21:54:35.480Z,77.82
2019-03-06T21:56:40.683Z,74.82
2019-03-06T21:58:45.883Z,64.25
2019-03-06T22:00:51.196Z,50.80
2019-03-06T22:02:56.488Z,52.85
2019-03-06T22:05:01.703Z,44.53
2019-03-06T22:07:08.407Z,40.40
2019-03-06T22:09:13.892Z,45.30
2019-03-06T22:11:19.631Z,44.10
2019-03-06T22:13:24.944Z,36.05
2019-03-06T22:15:30.143Z,39.63
2019-03-06T22:17:35.347Z,42.48
2019-03-06T22:19:41.235Z,47.43
2019-03-06T22:21:46.468Z,36.98
2019-03-06T22:23:51.674Z,34.53
2019-03-06T22:25:56.962Z,35.78
2019-03-06T22:28:02.170Z,27.07
2019-03-06T22:30:16.350Z,30.52
2019-03-06T22:32:21.583Z,32.42
2019-03-06T22:34:28.360Z,32.80
2019-03-06T22:36:33.564Z,42.38
2019-03-06T22:38:38.776Z,37.17
2019-03-06T22:40:43.987Z,36.93
2019-03-06T22:42:49.210Z,39.98
2019-03-06T22:44:54.419Z,40.15
2019-03-06T22:46:59.697Z,34.20
2019-03-06T22:49:05.006Z,34.83
2019-03-06T22:51:10.292Z,36.90
2019-03-06T22:53:15.506Z,37.48
2019-03-06T22:55:21.072Z,37.50
2019-03-06T22:57:27.206Z,32.48
2019-03-06T22:59:32.560Z,29.02
2019-03-06T23:01:38.200Z,33.80
2019-03-06T23:03:45.256Z,33.73
2019-03-06T23:05:50.532Z,36.10
2019-03-06T23:07:55.737Z,34.98
2019-03-06T23:10:01.038Z,26.73
2019-03-06T23:12:07.836Z,31.65
2019-03-06T23:14:13.147Z,31.48
2019-03-06T23:16:19.748Z,30.30
2019-03-06T23:18:25.116Z,31.93
2019-03-06T23:20:30.320Z,31.95
2019-03-06T23:22:35.936Z,23.73
2019-03-06T23:24:41.144Z,24.52
2019-03-06T23:26:46.344Z,28.00
2019-03-06T23:28:51.559Z,25.60
2019-03-06T23:30:56.831Z,22.80
2019-03-06T23:33:02.036Z,27.40
2019-03-06T23:35:07.555Z,25.92
2019-03-06T23:37:12.759Z,24.43
2019-03-06T23:39:18.449Z,26.10
2019-03-06T23:41:23.860Z,25.97
2019-03-06T23:43:29.232Z,28.90
2019-03-06T23:45:34.437Z,26.87
2019-03-06T23:47:39.846Z,28.70
2019-03-06T23:49:45.347Z,25.05
2019-03-06T23:51:52.585Z,27.50
2019-03-06T23:53:57.808Z,27.32
2019-03-06T23:56:03.358Z,18.55
2019-03-06T23:58:08.824Z,20.95
